Time;durP1;ratioP1;P1;durP2;ratioP2;P2;SDS_P1;SDS_P2;PMS_P1;PMS_P2;Temp;Humidity;BMP_temperature;BMP_pressure;BME280_temperature;BME280_humidity;BME280_pressure;Samples;Min_cycle;Max_cycle;Signal;HPM_P1;HPM_P2
2021/11/06 06:25:50;;;;;;;12.27;2.88;;;17.30;70.50;;;;;;4806747;29;20058;-82
2021/11/06 06:28:16;;;;;;;5.47;2.28;;;17.40;71.00;;;;;;4809953;29;20468;-81
2021/11/06 06:30:41;;;;;;;6.30;2.47;;;17.50;71.00;;;;;;4795464;29;20050;-81
2021/11/06 06:33:07;;;;;;;4.95;2.30;;;17.50;71.00;;;;;;4825842;29;20468;-81
2021/11/06 06:35:33;;;;;;;8.50;2.38;;;17.60;70.90;;;;;;4795196;29;20090;-82
2021/11/06 06:38:00;;;;;;;6.90;2.58;;;17.70;70.80;;;;;;4793602;29;20057;-82
2021/11/06 06:40:26;;;;;;;8.25;2.42;;;17.80;70.50;;;;;;4794319;29;20065;-82
2021/11/06 06:42:52;;;;;;;8.43;2.55;;;17.90;70.40;;;;;;4809200;29;20043;-83
2021/11/06 06:45:19;;;;;;;8.00;2.40;;;18.00;70.20;;;;;;4791545;29;20107;-78
2021/11/06 06:47:44;;;;;;;5.32;2.38;;;18.00;70.00;;;;;;4807756;29;20055;-78
2021/11/06 06:50:12;;;;;;;5.88;2.33;;;18.10;69.70;;;;;;4825059;29;20050;-77
2021/11/06 06:52:39;;;;;;;5.45;2.75;;;18.10;69.20;;;;;;4825675;29;20461;-78
2021/11/06 06:55:12;;;;;;;6.07;2.55;;;18.20;69.10;;;;;;4825412;29;20054;-83
2021/11/06 06:57:38;;;;;;;4.82;2.30;;;18.20;69.10;;;;;;4794639;29;20058;-77
2021/11/06 07:00:06;;;;;;;6.53;2.28;;;18.20;69.10;;;;;;4825550;29;20122;-77
2021/11/06 07:02:32;;;;;;;5.55;2.60;;;18.20;69.20;;;;;;4825619;29;20142;-79
2021/11/06 07:04:58;;;;;;;8.20;2.92;;;18.20;69.10;;;;;;4825584;29;20077;-79
2021/11/06 07:07:23;;;;;;;7.80;2.40;;;18.20;69.00;;;;;;4825675;29;20046;-79
2021/11/06 07:09:50;;;;;;;8.02;3.38;;;18.20;68.80;;;;;;4825732;29;20042;-80
2021/11/06 07:12:15;;;;;;;6.20;2.67;;;18.20;69.00;;;;;;4809116;29;20042;-79
2021/11/06 07:14:41;;;;;;;11.70;2.60;;;18.30;69.00;;;;;;4825667;29;20070;-79
2021/11/06 07:17:07;;;;;;;10.00;2.47;;;18.20;69.00;;;;;;4794363;29;20115;-79
2021/11/06 07:19:32;;;;;;;4.53;2.30;;;18.20;69.00;;;;;;4825431;29;20081;-80
2021/11/06 07:21:58;;;;;;;5.63;2.28;;;18.20;69.70;;;;;;4812501;29;20050;-79
2021/11/06 07:24:24;;;;;;;11.43;2.78;;;18.30;69.30;;;;;;4812497;29;20055;-79
2021/11/06 07:26:50;;;;;;;9.60;3.00;;;18.20;69.20;;;;;;4827706;29;20095;-80
2021/11/06 07:29:15;;;;;;;9.50;2.80;;;18.20;67.90;;;;;;4828544;29;20062;-79
2021/11/06 07:31:41;;;;;;;6.45;2.38;;;18.20;69.40;;;;;;4828490;29;20038;-81
2021/11/06 07:34:07;;;;;;;9.27;3.22;;;18.20;69.50;;;;;;4828659;29;20083;-80
2021/11/06 07:36:33;;;;;;;8.15;2.90;;;18.20;69.40;;;;;;4828612;29;20046;-74
2021/11/06 07:38:59;;;;;;;7.35;2.83;;;18.20;69.40;;;;;;4828239;29;20053;-75
2021/11/06 07:41:25;;;;;;;9.65;3.83;;;18.20;69.20;;;;;;4797301;29;20046;-80
2021/11/06 07:43:51;;;;;;;11.27;3.90;;;18.00;68.20;;;;;;4811878;29;20061;-77
2021/11/06 07:46:16;;;;;;;9.68;3.83;;;18.00;68.20;;;;;;4835864;29;20476;-78
2021/11/06 07:48:43;;;;;;;11.43;3.85;;;18.00;68.10;;;;;;4830293;29;20046;-79
2021/11/06 07:51:10;;;;;;;9.75;3.28;;;18.00;67.90;;;;;;4814864;29;20046;-84
2021/11/06 07:53:36;;;;;;;10.65;3.65;;;18.10;68.30;;;;;;4812105;29;20106;-84
2021/11/06 07:56:05;;;;;;;11.63;2.83;;;18.10;68.30;;;;;;4805336;29;20055;-85
2021/11/06 07:58:31;;;;;;;9.27;3.28;;;18.20;68.60;;;;;;4811319;29;20079;-84
2021/11/06 08:01:00;;;;;;;12.80;3.90;;;18.20;68.40;;;;;;4812078;29;20487;-83
2021/11/06 08:03:26;;;;;;;14.52;3.08;;;18.30;68.40;;;;;;4811517;29;20137;-83
2021/11/06 08:06:24;;;;;;;10.13;3.25;;;18.30;68.80;;;;;;4826683;29;20047;-88
2021/11/06 08:09:07;;;;;;;9.70;2.63;;;18.30;68.00;;;;;;4797404;29;20344;-89
2021/11/06 08:11:33;;;;;;;11.27;3.30;;;18.40;68.00;;;;;;4811513;29;20050;-82
2021/11/06 08:13:58;;;;;;;13.82;3.55;;;18.50;67.90;;;;;;4811645;29;20346;-85
2021/11/06 08:16:24;;;;;;;10.90;3.13;;;18.50;67.70;;;;;;4805665;29;20049;-77
2021/11/06 08:18:58;;;;;;;9.20;3.28;;;18.50;67.50;;;;;;4816060;29;20043;-88
2021/11/06 08:21:27;;;;;;;16.02;3.60;;;18.50;67.60;;;;;;4826260;29;20479;-88
2021/11/06 08:23:53;;;;;;;11.07;3.20;;;18.50;67.70;;;;;;4825539;29;20066;-86
2021/11/06 08:26:18;;;;;;;14.13;3.45;;;18.50;67.70;;;;;;4811014;29;20381;-83
2021/11/06 08:28:44;;;;;;;10.77;3.45;;;18.50;68.40;;;;;;4827621;29;20042;-85
2021/11/06 08:31:11;;;;;;;18.65;3.80;;;18.50;67.80;;;;;;4795950;29;20131;-85
2021/11/06 08:33:36;;;;;;;11.60;3.17;;;18.50;67.80;;;;;;4810958;29;20039;-85
2021/11/06 08:36:03;;;;;;;12.18;3.22;;;18.50;67.60;;;;;;4796599;29;20051;-78
2021/11/06 08:38:33;;;;;;;15.07;3.75;;;18.50;67.70;;;;;;4827461;29;20354;-85
2021/11/06 08:41:00;;;;;;;11.68;3.35;;;18.50;67.80;;;;;;4810820;29;20125;-84
2021/11/06 08:43:26;;;;;;;16.15;4.07;;;18.50;67.80;;;;;;4811591;29;20054;-85
2021/11/06 08:45:54;;;;;;;15.07;3.55;;;18.60;68.00;;;;;;4796645;29;20042;-84
2021/11/06 08:48:20;;;;;;;16.50;3.60;;;18.50;68.00;;;;;;4811462;29;20141;-84
2021/11/06 08:50:48;;;;;;;11.00;3.10;;;18.50;68.10;;;;;;4796619;29;20083;-73
2021/11/06 08:53:14;;;;;;;16.10;3.05;;;18.50;68.30;;;;;;4826976;29;20053;-76
2021/11/06 08:55:41;;;;;;;18.77;3.80;;;18.50;68.20;;;;;;4826975;29;20055;-81
2021/11/06 08:58:06;;;;;;;12.05;3.25;;;18.30;67.30;;;;;;4810991;29;20066;-79
2021/11/06 09:00:37;;;;;;;20.50;4.35;;;18.40;68.00;;;;;;4826967;29;20125;-80
2021/11/06 09:03:16;;;;;;;17.77;3.42;;;18.40;67.90;;;;;;4808063;29;20486;-81
2021/11/06 09:05:43;;;;;;;9.77;3.22;;;18.40;68.10;;;;;;4793267;29;20049;-75
2021/11/06 09:08:09;;;;;;;15.77;4.18;;;18.40;68.00;;;;;;4808936;29;20058;-76
2021/11/06 09:10:35;;;;;;;12.45;4.05;;;18.40;67.80;;;;;;4821617;29;20054;-80
2021/11/06 09:13:01;;;;;;;13.32;3.22;;;18.40;67.20;;;;;;4826750;29;20127;-80
2021/11/06 09:15:27;;;;;;;10.43;3.58;;;18.40;66.90;;;;;;4795820;29;20050;-78
2021/11/06 09:17:53;;;;;;;10.48;3.38;;;18.40;66.70;;;;;;4810863;29;20132;-80
2021/11/06 09:20:19;;;;;;;12.23;3.33;;;18.40;66.80;;;;;;4827080;29;20062;-78
2021/11/06 09:22:46;;;;;;;14.75;3.90;;;18.40;67.00;;;;;;4827148;29;20051;-76
2021/11/06 09:25:12;;;;;;;10.30;3.40;;;18.40;67.10;;;;;;4826380;29;20062;-76
2021/11/06 09:27:39;;;;;;;7.00;3.40;;;18.40;66.90;;;;;;4826676;29;20062;-77
2021/11/06 09:30:08;;;;;;;11.30;4.57;;;18.40;66.70;;;;;;4826619;29;20069;-78
2021/11/06 09:32:41;;;;;;;11.68;5.32;;;18.40;66.20;;;;;;4826286;29;20053;-85
2021/11/06 09:35:08;;;;;;;10.63;5.38;;;18.00;65.00;;;;;;4795298;29;20062;-79
2021/11/06 09:37:34;;;;;;;10.73;4.68;;;18.00;65.60;;;;;;4826328;29;20081;-78
2021/11/06 09:40:00;;;;;;;11.63;4.50;;;18.00;65.70;;;;;;4826610;29;20078;-80
2021/11/06 09:42:26;;;;;;;9.32;4.43;;;18.00;65.60;;;;;;4826534;29;20051;-78
2021/11/06 09:44:52;;;;;;;10.20;4.40;;;17.90;65.70;;;;;;4810879;29;20419;-78
2021/11/06 09:47:19;;;;;;;9.35;4.18;;;17.90;65.70;;;;;;4827078;29;20065;-77
2021/11/06 09:49:46;;;;;;;8.40;3.75;;;17.90;65.80;;;;;;4826390;29;20054;-79
2021/11/06 09:52:12;;;;;;;7.22;3.60;;;17.90;66.00;;;;;;4810725;29;20137;-79
2021/11/06 09:54:39;;;;;;;7.35;3.60;;;17.80;66.00;;;;;;4811058;29;20122;-78
2021/11/06 09:57:06;;;;;;;11.05;4.72;;;17.80;66.20;;;;;;4810788;29;20125;-78
2021/11/06 09:59:32;;;;;;;8.35;3.25;;;17.80;66.20;;;;;;4811286;29;20053;-78
2021/11/06 10:01:59;;;;;;;7.18;3.47;;;17.80;66.40;;;;;;4810093;29;20435;-78
2021/11/06 10:04:26;;;;;;;4.35;2.53;;;17.70;66.40;;;;;;4826491;29;20091;-78
2021/11/06 10:06:52;;;;;;;5.15;2.97;;;17.70;67.20;;;;;;4826370;29;20058;-78
2021/11/06 10:09:18;;;;;;;7.63;3.20;;;17.70;66.70;;;;;;4825869;29;20062;-80
2021/11/06 10:11:49;;;;;;;6.13;3.28;;;17.70;66.80;;;;;;4826188;29;20127;-79
2021/11/06 10:14:26;;;;;;;4.97;2.88;;;17.60;66.80;;;;;;4826730;29;20371;-78
2021/11/06 10:16:56;;;;;;;6.18;2.88;;;17.60;66.70;;;;;;4825765;29;20129;-78
2021/11/06 10:19:27;;;;;;;6.50;3.00;;;17.60;67.00;;;;;;4826303;29;20062;-79
2021/11/06 10:22:14;;;;;;;7.18;2.58;;;17.60;67.10;;;;;;4826276;29;20072;-78
2021/11/06 10:24:47;;;;;;;5.93;2.72;;;17.60;66.90;;;;;;4826054;29;20054;-80
2021/11/06 10:27:16;;;;;;;6.40;2.40;;;17.50;67.20;;;;;;4826012;29;20070;-77
2021/11/06 10:29:43;;;;;;;6.07;2.80;;;17.50;67.40;;;;;;4810468;29;20110;-77
2021/11/06 10:32:10;;;;;;;5.82;2.80;;;17.50;67.50;;;;;;4825970;29;20050;-77
2021/11/06 10:34:38;;;;;;;5.05;2.50;;;17.50;67.60;;;;;;4809922;29;20495;-78
2021/11/06 10:37:12;;;;;;;7.43;2.78;;;17.50;67.70;;;;;;4826389;29;20146;-79
2021/11/06 10:39:54;;;;;;;4.40;2.55;;;17.50;67.70;;;;;;4826484;29;20058;-80
2021/11/06 10:42:20;;;;;;;4.07;2.20;;;17.50;67.50;;;;;;4825484;29;20050;-79
2021/11/06 10:44:46;;;;;;;4.07;2.40;;;17.40;68.40;;;;;;4809813;29;20365;-78
2021/11/06 10:47:12;;;;;;;5.10;2.30;;;17.40;67.90;;;;;;4826097;29;20137;-79
2021/11/06 10:49:39;;;;;;;4.15;2.40;;;17.40;68.00;;;;;;4809990;29;20111;-79
2021/11/06 10:52:23;;;;;;;4.78;2.15;;;17.40;68.20;;;;;;4824721;29;20130;-78
2021/11/06 10:55:08;;;;;;;4.65;2.30;;;17.40;68.00;;;;;;4826269;29;20050;-78
2021/11/06 10:57:35;;;;;;;5.65;2.22;;;17.40;68.10;;;;;;4829597;29;20060;-78
2021/11/06 11:00:18;;;;;;;3.55;2.00;;;17.40;68.40;;;;;;4813740;29;20050;-78
2021/11/06 11:02:43;;;;;;;5.03;2.20;;;17.40;68.10;;;;;;4828413;29;20065;-78
2021/11/06 11:05:31;;;;;;;4.57;2.08;;;17.40;68.40;;;;;;4813559;29;20054;-78
2021/11/06 11:08:05;;;;;;;4.53;2.13;;;17.40;68.30;;;;;;4829144;29;20069;-77
2021/11/06 11:10:31;;;;;;;4.65;2.40;;;17.30;68.50;;;;;;4812963;29;20054;-79
2021/11/06 11:13:16;;;;;;;4.40;2.08;;;17.40;68.60;;;;;;4812998;29;20049;-78
2021/11/06 11:15:44;;;;;;;4.32;2.47;;;17.30;68.40;;;;;;4828075;29;20362;-78
2021/11/06 11:18:36;;;;;;;3.50;2.10;;;17.30;68.60;;;;;;4829558;29;20055;-80
2021/11/06 11:21:18;;;;;;;4.80;1.98;;;17.30;68.30;;;;;;4825330;29;20054;-78
2021/11/06 11:23:54;;;;;;;5.00;2.00;;;17.30;68.30;;;;;;4824991;29;20088;-77
2021/11/06 11:26:29;;;;;;;4.55;2.25;;;17.30;68.30;;;;;;4826253;29;20062;-78
2021/11/06 11:28:56;;;;;;;3.67;2.22;;;17.30;68.30;;;;;;4828956;29;20106;-78
2021/11/06 11:31:23;;;;;;;5.65;2.20;;;17.20;68.50;;;;;;4828965;29;20046;-79
2021/11/06 11:33:49;;;;;;;5.47;2.70;;;17.20;68.40;;;;;;4828985;29;20129;-78
2021/11/06 11:36:18;;;;;;;3.75;2.40;;;17.30;68.40;;;;;;4829016;29;20058;-79
2021/11/06 11:38:44;;;;;;;4.65;2.75;;;17.20;68.40;;;;;;4827862;29;20069;-78
2021/11/06 11:41:28;;;;;;;4.43;2.50;;;17.30;68.40;;;;;;4813595;29;20051;-79
2021/11/06 11:44:31;;;;;;;4.78;2.65;;;17.30;68.30;;;;;;4843438;29;20054;-78
2021/11/06 11:47:21;;;;;;;5.50;2.60;;;17.20;68.20;;;;;;4827981;29;20054;-78
2021/11/06 11:49:51;;;;;;;6.32;3.20;;;17.30;68.30;;;;;;4828412;29;20065;-78
2021/11/06 11:52:33;;;;;;;4.03;2.65;;;17.20;68.30;;;;;;4812389;29;20385;-78
2021/11/06 11:55:20;;;;;;;5.97;2.95;;;17.30;68.30;;;;;;4812535;29;20062;-78
2021/11/06 11:57:51;;;;;;;5.75;2.92;;;17.20;68.20;;;;;;4812195;29;20085;-78
2021/11/06 12:00:17;;;;;;;4.57;2.60;;;17.20;68.30;;;;;;4812741;29;20058;-78
2021/11/06 12:03:02;;;;;;;5.97;2.97;;;17.20;68.40;;;;;;4827992;29;20114;-77
2021/11/06 12:05:45;;;;;;;4.28;2.70;;;17.20;68.30;;;;;;4829012;29;20090;-77
2021/11/06 12:08:10;;;;;;;4.05;2.50;;;17.20;68.40;;;;;;4828762;29;20050;-77
2021/11/06 12:10:40;;;;;;;6.95;2.85;;;17.20;68.50;;;;;;4827777;29;20419;-79
2021/11/06 12:13:30;;;;;;;4.72;2.90;;;17.20;68.50;;;;;;4828161;29;20046;-79
2021/11/06 12:15:58;;;;;;;5.18;3.08;;;17.20;68.60;;;;;;4812170;29;20054;-78
2021/11/06 12:18:33;;;;;;;5.95;2.97;;;17.20;68.70;;;;;;4828582;29;20090;-77
2021/11/06 12:21:21;;;;;;;4.85;2.80;;;17.20;68.50;;;;;;4828276;29;20058;-79
2021/11/06 12:23:57;;;;;;;4.50;2.97;;;17.20;68.70;;;;;;4828015;29;20129;-80
2021/11/06 12:26:30;;;;;;;4.60;2.55;;;17.20;68.70;;;;;;4827316;29;20073;-78
2021/11/06 12:29:05;;;;;;;5.60;3.17;;;17.20;68.80;;;;;;4826897;29;20370;-79
2021/11/06 12:31:38;;;;;;;5.25;2.92;;;17.20;68.70;;;;;;4827675;29;20054;-77
2021/11/06 12:34:06;;;;;;;;;;;17.20;68.80;;;;;;4828288;29;20331;-79
2021/11/06 12:36:33;;;;;;;4.38;2.95;;;17.10;68.50;;;;;;4828163;29;19976;-79
2021/11/06 12:39:01;;;;;;;4.55;2.63;;;17.10;68.80;;;;;;4811946;29;20083;-78
2021/11/06 12:41:32;;;;;;;7.22;2.85;;;17.10;68.90;;;;;;4827533;29;20065;-78
2021/11/06 12:44:01;;;;;;;4.38;2.97;;;17.10;68.90;;;;;;4812327;29;20104;-79
2021/11/06 12:46:32;;;;;;;4.13;2.70;;;17.10;68.90;;;;;;4827903;29;20097;-79
2021/11/06 12:49:09;;;;;;;4.13;2.85;;;17.10;68.90;;;;;;4826843;29;20050;-78
2021/11/06 12:51:41;;;;;;;5.55;3.28;;;17.10;68.90;;;;;;4811753;29;20097;-78
2021/11/06 12:54:13;;;;;;;5.18;3.08;;;17.10;69.00;;;;;;4826722;29;20091;-79
2021/11/06 12:56:42;;;;;;;4.43;2.53;;;17.10;69.00;;;;;;4826467;29;20050;-78
2021/11/06 12:59:15;;;;;;;3.90;2.78;;;17.10;69.10;;;;;;4826347;29;20050;-78
2021/11/06 13:02:00;;;;;;;5.22;2.83;;;17.10;69.00;;;;;;4811660;29;20054;-78
2021/11/06 13:04:29;;;;;;;4.95;3.03;;;17.10;68.90;;;;;;4827299;29;20461;-78
2021/11/06 13:06:55;;;;;;;6.18;2.92;;;17.10;69.20;;;;;;4827619;29;20094;-79
2021/11/06 13:09:30;;;;;;;4.78;2.47;;;17.10;69.20;;;;;;4811350;29;20066;-78
2021/11/06 13:12:10;;;;;;;4.55;2.95;;;17.10;69.10;;;;;;4811540;29;20058;-79
2021/11/06 13:15:13;;;;;;;4.97;2.70;;;17.10;69.10;;;;;;4812013;29;20058;-80
2021/11/06 13:17:38;;;;;;;5.03;2.95;;;17.10;69.20;;;;;;4752191;30;20503;-79
2021/11/06 13:20:19;;;;;;;4.75;2.63;;;17.10;69.20;;;;;;4811853;29;20058;-79
2021/11/06 13:22:49;;;;;;;4.88;2.65;;;17.10;69.20;;;;;;4826178;29;20131;-80
2021/11/06 13:25:20;;;;;;;5.55;2.97;;;17.10;69.20;;;;;;4826780;29;20062;-77
2021/11/06 13:27:56;;;;;;;5.20;2.72;;;17.10;69.20;;;;;;4826824;29;20501;-77
2021/11/06 13:30:22;;;;;;;5.80;3.13;;;17.10;69.20;;;;;;4811760;29;20071;-79
2021/11/06 13:33:04;;;;;;;5.38;2.85;;;17.00;69.10;;;;;;4810760;29;20062;-78
2021/11/06 13:35:43;;;;;;;5.45;3.03;;;17.00;69.10;;;;;;4826543;29;20064;-77
2021/11/06 13:38:23;;;;;;;4.13;2.35;;;17.00;69.10;;;;;;4827145;29;20140;-77
2021/11/06 13:41:00;;;;;;;4.15;2.90;;;17.00;69.20;;;;;;4826089;29;20054;-78
2021/11/06 13:43:49;;;;;;;3.00;2.10;;;17.00;69.20;;;;;;4810487;29;20118;-79
2021/11/06 13:46:26;;;;;;;4.35;2.45;;;17.00;69.20;;;;;;4810172;29;20054;-79
2021/11/06 13:48:59;;;;;;;4.47;2.92;;;17.00;69.20;;;;;;4810555;29;20530;-79
2021/11/06 13:51:30;;;;;;;4.47;2.55;;;17.00;69.20;;;;;;4810483;29;20130;-78
2021/11/06 13:53:58;;;;;;;4.72;3.03;;;17.00;69.20;;;;;;4826601;29;20057;-78
2021/11/06 13:56:26;;;;;;;5.75;2.50;;;17.00;69.20;;;;;;4810829;29;20082;-78
2021/11/06 13:58:59;;;;;;;5.13;2.40;;;17.00;69.30;;;;;;4826425;29;20057;-79
2021/11/06 14:01:27;;;;;;;3.95;2.30;;;17.00;69.20;;;;;;4825656;29;20377;-77
2021/11/06 14:03:54;;;;;;;5.68;2.30;;;17.00;69.30;;;;;;4826542;29;20454;-77
2021/11/06 14:06:20;;;;;;;5.05;2.65;;;17.00;69.20;;;;;;4795585;29;20070;-77
2021/11/06 14:08:46;;;;;;;4.22;2.30;;;17.00;69.30;;;;;;4826846;29;20061;-78
2021/11/06 14:11:12;;;;;;;4.32;2.55;;;17.00;69.20;;;;;;4826471;29;20454;-78
2021/11/06 14:13:38;;;;;;;4.38;2.40;;;17.00;69.20;;;;;;4840914;29;20050;-80
2021/11/06 14:16:18;;;;;;;3.80;2.40;;;17.00;69.20;;;;;;4811157;29;20071;-78
2021/11/06 14:18:46;;;;;;;4.53;2.47;;;17.00;69.10;;;;;;4811084;29;20068;-79
2021/11/06 14:21:25;;;;;;;4.07;2.40;;;17.00;69.30;;;;;;4826564;29;20054;-78
2021/11/06 14:23:50;;;;;;;4.43;2.40;;;17.00;69.20;;;;;;4826565;29;20054;-77
2021/11/06 14:26:22;;;;;;;3.72;2.28;;;17.00;69.20;;;;;;4809934;29;20161;-79
2021/11/06 14:29:08;;;;;;;4.28;2.30;;;17.00;69.30;;;;;;4810061;29;20146;-77
2021/11/06 14:31:42;;;;;;;5.55;2.33;;;16.90;69.20;;;;;;4809383;29;20542;-77
2021/11/06 14:34:20;;;;;;;3.47;1.73;;;17.00;69.30;;;;;;4810401;29;20469;-77
2021/11/06 14:37:03;;;;;;;3.05;1.98;;;16.90;69.20;;;;;;4810177;29;20090;-76
2021/11/06 14:39:32;;;;;;;3.75;2.20;;;16.90;69.20;;;;;;4826260;29;20442;-78
2021/11/06 14:41:59;;;;;;;4.38;2.20;;;16.90;69.20;;;;;;4809990;29;20085;-78
2021/11/06 14:44:29;;;;;;;4.20;2.35;;;16.90;69.20;;;;;;4826291;29;20054;-78
2021/11/06 14:46:58;;;;;;;4.57;2.47;;;16.90;69.20;;;;;;4810354;29;20059;-78
2021/11/06 14:49:30;;;;;;;6.65;2.00;;;16.90;69.20;;;;;;4826284;29;20069;-77
2021/11/06 14:52:00;;;;;;;3.42;1.77;;;16.90;69.20;;;;;;4826246;29;20062;-76
2021/11/06 14:54:44;;;;;;;4.43;2.17;;;16.90;69.20;;;;;;4809654;29;20070;-77
2021/11/06 14:57:17;;;;;;;4.43;2.33;;;16.90;69.20;;;;;;4810502;29;20054;-79
2021/11/06 14:59:43;;;;;;;3.55;1.90;;;16.90;69.20;;;;;;4826646;29;20347;-78
2021/11/06 15:02:10;;;;;;;5.20;2.22;;;16.90;69.20;;;;;;4825587;29;20363;-78
2021/11/06 15:04:44;;;;;;;3.78;2.17;;;16.90;69.20;;;;;;4826638;29;20054;-77
2021/11/06 15:07:11;;;;;;;3.95;2.00;;;16.90;69.20;;;;;;4824982;29;20061;-77
2021/11/06 15:09:38;;;;;;;3.00;2.03;;;16.90;69.20;;;;;;4825815;29;20062;-77
2021/11/06 15:12:04;;;;;;;5.35;2.35;;;16.90;69.20;;;;;;4826164;29;20352;-77
2021/11/06 15:14:31;;;;;;;3.40;1.88;;;16.90;69.20;;;;;;4825086;29;20073;-78
2021/11/06 15:16:57;;;;;;;3.75;2.10;;;16.90;69.20;;;;;;4826021;29;20054;-77
2021/11/06 15:19:23;;;;;;;3.00;2.03;;;16.90;69.10;;;;;;4824893;29;20057;-77
2021/11/06 15:21:49;;;;;;;3.17;1.73;;;16.90;69.10;;;;;;4826165;29;20051;-77
2021/11/06 15:24:16;;;;;;;4.38;1.90;;;16.90;69.10;;;;;;4824509;29;20054;-78
2021/11/06 15:26:43;;;;;;;4.43;1.67;;;16.80;69.00;;;;;;4825404;29;20096;-77
2021/11/06 15:29:10;;;;;;;8.93;2.15;;;16.80;68.60;;;;;;4825140;29;20359;-79
2021/11/06 15:31:39;;;;;;;7.20;2.35;;;16.70;68.80;;;;;;4809306;29;20123;-75
2021/11/06 15:34:05;;;;;;;7.28;3.05;;;16.50;69.40;;;;;;4825617;29;20054;-80
2021/11/06 15:36:31;;;;;;;8.10;2.67;;;16.30;69.70;;;;;;4825593;29;20358;-78
2021/11/06 15:38:57;;;;;;;4.47;2.65;;;16.10;70.20;;;;;;4809453;29;20058;-77
2021/11/06 15:41:22;;;;;;;3.80;2.42;;;16.00;70.50;;;;;;4810468;29;20055;-76
2021/11/06 15:43:49;;;;;;;12.15;3.03;;;16.00;71.10;;;;;;4798131;29;20058;-78
2021/11/06 15:46:14;;;;;;;5.53;2.70;;;15.90;71.40;;;;;;4828801;29;20072;-77
2021/11/06 15:48:40;;;;;;;7.03;2.80;;;15.90;71.70;;;;;;4828845;29;20061;-78
2021/11/06 15:51:13;;;;;;;7.72;2.85;;;15.90;71.80;;;;;;4828098;29;20058;-79
2021/11/06 15:53:38;;;;;;;5.30;2.28;;;15.90;71.90;;;;;;4828374;29;20080;-77
2021/11/06 15:56:07;;;;;;;9.00;3.55;;;15.90;72.10;;;;;;4828889;29;20137;-79
2021/11/06 15:58:33;;;;;;;7.20;2.33;;;15.80;72.30;;;;;;4812758;29;20409;-77
2021/11/06 16:01:06;;;;;;;6.03;2.25;;;15.90;72.30;;;;;;4828312;29;20129;-77
2021/11/06 16:03:32;;;;;;;7.82;2.70;;;15.90;72.50;;;;;;4814199;29;20147;-75
2021/11/06 16:05:57;;;;;;;4.97;2.08;;;15.90;72.60;;;;;;4846311;29;20453;-74
2021/11/06 16:08:23;;;;;;;5.57;2.30;;;15.90;72.60;;;;;;4830494;29;20092;-78
2021/11/06 16:10:49;;;;;;;5.28;2.10;;;15.90;72.60;;;;;;4810510;29;20407;-76
2021/11/06 16:13:15;;;;;;;7.93;2.45;;;15.90;72.60;;;;;;4810862;29;20055;-80
2021/11/06 16:15:42;;;;;;;6.03;2.40;;;15.90;72.50;;;;;;4809249;29;20437;-77
2021/11/06 16:18:10;;;;;;;11.25;2.85;;;15.90;72.60;;;;;;4809447;29;20431;-77
2021/11/06 16:20:46;;;;;;;8.45;3.00;;;16.00;72.80;;;;;;4812267;29;20061;-75
2021/11/06 16:23:12;;;;;;;13.35;3.30;;;16.00;73.00;;;;;;4827558;29;20137;-77
2021/11/06 16:25:38;;;;;;;7.15;2.53;;;16.10;73.40;;;;;;4785865;29;20146;-75
2021/11/06 16:28:03;;;;;;;12.32;3.15;;;16.10;73.80;;;;;;4808468;29;20082;-74
2021/11/06 16:30:29;;;;;;;7.18;3.17;;;16.20;74.30;;;;;;4808446;29;20112;-75
2021/11/06 16:32:55;;;;;;;18.52;4.53;;;16.20;75.20;;;;;;4809574;29;20051;-76
2021/11/06 16:35:21;;;;;;;13.38;4.13;;;16.10;76.50;;;;;;4808401;29;20054;-77
2021/11/06 16:37:47;;;;;;;15.40;4.95;;;16.10;77.20;;;;;;4809459;29;20066;-71
2021/11/06 16:40:13;;;;;;;10.68;3.95;;;16.10;78.30;;;;;;4809342;29;20054;-78
2021/11/06 16:42:39;;;;;;;12.40;5.10;;;16.20;77.10;;;;;;4809699;29;20450;-75
2021/11/06 16:45:06;;;;;;;19.33;6.88;;;16.30;76.10;;;;;;4809837;29;20406;-76
2021/11/06 16:47:32;;;;;;;17.35;9.77;;;16.40;77.00;;;;;;4807518;29;20057;-81
2021/11/06 16:49:58;;;;;;;25.58;11.38;;;16.50;78.30;;;;;;4793487;29;20078;-79
2021/11/06 16:52:24;;;;;;;21.60;8.18;;;16.50;80.60;;;;;;4807269;29;20046;-78
2021/11/06 16:54:50;;;;;;;21.30;8.15;;;16.60;81.40;;;;;;4809098;29;20058;-82
2021/11/06 16:57:16;;;;;;;21.52;7.97;;;16.70;82.40;;;;;;4805968;29;20082;-73
2021/11/06 16:59:43;;;;;;;14.88;5.65;;;16.80;82.20;;;;;;4809255;29;20371;-75
2021/11/06 17:02:08;;;;;;;16.17;5.75;;;16.90;81.10;;;;;;4808858;29;20054;-76
2021/11/06 17:04:34;;;;;;;17.48;5.18;;;16.90;79.50;;;;;;4823278;29;20061;-75
2021/11/06 17:07:00;;;;;;;14.35;5.18;;;17.00;78.90;;;;;;4809487;29;20090;-79
2021/11/06 17:09:27;;;;;;;18.33;5.05;;;17.00;78.40;;;;;;4809052;29;20051;-77
2021/11/06 17:11:55;;;;;;;12.90;5.22;;;17.10;78.10;;;;;;4808825;29;20131;-78
2021/11/06 17:14:24;;;;;;;16.52;5.60;;;17.10;77.80;;;;;;4809038;29;20110;-78
2021/11/06 17:16:51;;;;;;;13.20;4.45;;;17.10;77.50;;;;;;4808835;29;20063;-77
2021/11/06 17:19:17;;;;;;;15.10;4.30;;;17.10;77.30;;;;;;4808061;29;20084;-77
2021/11/06 17:21:43;;;;;;;10.82;4.38;;;17.20;77.20;;;;;;4808840;29;20372;-77
2021/11/06 17:24:09;;;;;;;12.60;4.10;;;17.20;77.10;;;;;;4809193;29;20119;-77
2021/11/06 17:26:37;;;;;;;11.52;4.28;;;17.20;76.90;;;;;;4826374;29;20440;-80
2021/11/06 17:29:03;;;;;;;14.82;4.00;;;17.20;76.80;;;;;;4810843;29;20146;-78
2021/11/06 17:31:29;;;;;;;7.82;4.20;;;17.20;77.00;;;;;;4827370;29;20050;-77
2021/11/06 17:33:56;;;;;;;11.30;3.40;;;17.20;77.30;;;;;;4826691;29;20083;-78
2021/11/06 17:36:23;;;;;;;9.48;3.88;;;17.20;77.00;;;;;;4823068;29;20055;-78
2021/11/06 17:38:48;;;;;;;11.18;3.60;;;17.20;76.80;;;;;;4825367;29;20434;-78
2021/11/06 17:41:14;;;;;;;10.63;3.70;;;17.20;76.70;;;;;;4807647;29;20145;-79
2021/11/06 17:43:40;;;;;;;16.08;3.13;;;17.20;76.60;;;;;;4807867;29;20086;-79
2021/11/06 17:46:08;;;;;;;8.10;3.58;;;17.20;76.60;;;;;;4826223;29;20062;-78
2021/11/06 17:48:36;;;;;;;9.48;3.35;;;17.20;76.60;;;;;;4823413;29;20129;-77
2021/11/06 17:51:07;;;;;;;7.25;2.50;;;17.30;76.60;;;;;;4826710;29;20039;-78
2021/11/06 17:53:40;;;;;;;8.20;2.67;;;17.20;76.20;;;;;;4826505;29;20055;-74
2021/11/06 17:56:06;;;;;;;8.47;3.30;;;17.30;75.80;;;;;;4827146;29;20066;-75
2021/11/06 17:58:32;;;;;;;12.30;2.90;;;17.30;75.30;;;;;;4826616;29;20058;-75
2021/11/06 18:01:00;;;;;;;9.40;2.70;;;17.30;75.00;;;;;;4810165;29;20347;-75
2021/11/06 18:03:27;;;;;;;21.55;2.80;;;17.30;75.00;;;;;;4821380;29;20062;-75
2021/11/06 18:05:54;;;;;;;17.38;3.45;;;17.30;74.90;;;;;;4825120;29;20458;-75
2021/11/06 18:08:20;;;;;;;12.25;2.50;;;17.30;74.90;;;;;;4826471;29;20545;-75
2021/11/06 18:10:47;;;;;;;21.73;3.38;;;17.30;75.00;;;;;;4826328;29;20069;-78
2021/11/06 18:13:13;;;;;;;11.90;2.65;;;17.30;74.90;;;;;;4826327;29;20043;-77
2021/11/06 18:15:39;;;;;;;13.55;3.42;;;17.30;74.90;;;;;;4826239;29;20133;-77
2021/11/06 18:18:05;;;;;;;13.77;2.90;;;17.20;74.70;;;;;;4826622;29;20085;-76
2021/11/06 18:20:31;;;;;;;13.00;3.03;;;17.20;74.60;;;;;;4826367;29;20054;-79
2021/11/06 18:22:56;;;;;;;11.85;2.13;;;17.20;74.60;;;;;;4826244;29;20114;-79
2021/11/06 18:25:22;;;;;;;10.88;2.10;;;17.20;74.60;;;;;;4826028;29;20150;-77
2021/11/06 18:27:49;;;;;;;10.48;2.63;;;17.20;74.60;;;;;;4826182;29;20427;-78
2021/11/06 18:30:16;;;;;;;8.32;2.40;;;17.10;74.40;;;;;;4825993;29;20060;-77
2021/11/06 18:32:42;;;;;;;9.43;2.65;;;17.10;74.40;;;;;;4825641;29;20061;-77
2021/11/06 18:35:09;;;;;;;9.52;2.67;;;17.10;74.30;;;;;;4826069;29;20471;-78
2021/11/06 18:37:35;;;;;;;9.20;2.20;;;17.10;74.20;;;;;;4825781;29;20051;-77
2021/11/06 18:40:06;;;;;;;7.85;2.05;;;17.10;74.20;;;;;;4826530;29;20054;-77
2021/11/06 18:42:33;;;;;;;11.60;2.15;;;17.10;74.20;;;;;;4826578;29;20057;-78
2021/11/06 18:45:00;;;;;;;5.13;2.05;;;17.10;74.10;;;;;;4810112;29;20054;-76
2021/11/06 18:47:26;;;;;;;8.70;2.05;;;17.10;74.60;;;;;;4826037;29;20054;-77
2021/11/06 18:49:53;;;;;;;7.97;2.30;;;17.00;73.90;;;;;;4826221;29;20073;-77
2021/11/06 18:52:20;;;;;;;4.38;1.73;;;17.00;74.20;;;;;;4825886;29;20047;-83
2021/11/06 18:54:47;;;;;;;8.15;1.85;;;16.90;74.50;;;;;;4825305;29;20058;-79
2021/11/06 18:57:13;;;;;;;6.50;2.17;;;16.90;74.60;;;;;;4826151;29;20103;-81
2021/11/06 18:59:41;;;;;;;6.65;1.92;;;16.90;74.60;;;;;;4809619;29;20462;-81
2021/11/06 19:02:07;;;;;;;6.13;1.63;;;16.90;74.80;;;;;;4809590;29;20073;-80
2021/11/06 19:04:33;;;;;;;5.85;1.83;;;16.90;74.70;;;;;;4825642;29;20054;-80
2021/11/06 19:06:59;;;;;;;8.90;1.55;;;17.00;74.50;;;;;;4810434;29;20439;-81
2021/11/06 19:09:25;;;;;;;6.85;1.90;;;16.90;74.30;;;;;;4802206;29;20545;-81
2021/11/06 19:11:51;;;;;;;9.13;2.15;;;17.00;74.30;;;;;;4828543;29;20054;-77
2021/11/06 19:14:16;;;;;;;7.68;1.80;;;16.90;74.00;;;;;;4844054;29;20052;-81
2021/11/06 19:16:42;;;;;;;5.95;1.63;;;17.00;74.00;;;;;;4830251;29;20449;-80
2021/11/06 19:19:09;;;;;;;10.65;2.10;;;16.90;73.90;;;;;;4847732;29;20053;-81